createdAt,value
2019-05-18T00:01:57.672Z,23.20
2019-05-18T00:04:28.229Z,22.33
2019-05-18T00:06:58.410Z,22.00
2019-05-18T00:09:28.682Z,22.73
2019-05-18T00:11:59.314Z,24.13
2019-05-18T00:14:30.619Z,24.10
2019-05-18T00:17:01.363Z,23.40
2019-05-18T00:19:31.644Z,22.80
2019-05-18T00:22:01.958Z,22.43
2019-05-18T00:24:33.517Z,23.47
2019-05-18T00:27:04.200Z,22.87
2019-05-18T00:29:36.497Z,23.93
2019-05-18T00:32:06.668Z,23.30
2019-05-18T00:34:36.873Z,23.47
2019-05-18T00:37:07.217Z,22.60
2019-05-18T00:39:37.474Z,24.40
2019-05-18T00:42:07.761Z,23.93
2019-05-18T00:44:39.237Z,24.43
2019-05-18T00:47:09.511Z,23.23
2019-05-18T00:49:39.987Z,23.77
2019-05-18T00:52:10.328Z,23.73
2019-05-18T00:54:40.638Z,23.27
2019-05-18T00:57:10.892Z,24.27
2019-05-18T00:59:41.140Z,24.63
2019-05-18T01:02:30.772Z,23.30
2019-05-18T01:05:01.099Z,25.83
2019-05-18T01:07:31.813Z,24.63
2019-05-18T01:10:02.457Z,24.73
2019-05-18T01:12:32.850Z,24.63
2019-05-18T01:15:03.140Z,25.67
2019-05-18T01:17:33.513Z,25.10
2019-05-18T01:20:04.264Z,25.73
2019-05-18T01:22:34.601Z,24.73
2019-05-18T01:25:05.961Z,26.43
2019-05-18T01:27:36.743Z,28.03
2019-05-18T01:30:08.250Z,27.83
2019-05-18T01:32:38.641Z,27.53
2019-05-18T01:35:09.649Z,28.23
2019-05-18T01:37:39.965Z,28.20
2019-05-18T01:40:10.708Z,28.70
2019-05-18T01:42:41.446Z,29.70
2019-05-18T01:45:17.188Z,28.97
2019-05-18T01:47:44.671Z,30.40
2019-05-18T01:50:14.980Z,28.43
2019-05-18T01:52:45.730Z,30.07
2019-05-18T01:55:16.041Z,30.03
2019-05-18T01:57:46.394Z,30.53
2019-05-18T02:00:17.616Z,32.67
2019-05-18T02:02:47.860Z,31.10
2019-05-18T02:05:18.426Z,31.73
2019-05-18T02:07:48.820Z,30.10
2019-05-18T02:10:20.230Z,31.60
2019-05-18T02:12:51.678Z,30.57
2019-05-18T02:15:22.012Z,30.97
2019-05-18T02:17:52.744Z,31.30
2019-05-18T02:20:23.035Z,31.40
2019-05-18T02:22:53.776Z,31.07
2019-05-18T02:25:24.051Z,32.87
2019-05-18T02:27:54.897Z,33.83
2019-05-18T02:30:25.246Z,31.27
2019-05-18T02:32:55.981Z,31.47
2019-05-18T02:35:26.297Z,32.43
2019-05-18T02:38:13.616Z,31.23
2019-05-18T02:40:44.777Z,31.80
2019-05-18T02:43:15.394Z,33.27
2019-05-18T02:45:45.758Z,32.87
2019-05-18T02:48:16.147Z,32.57
2019-05-18T02:50:46.810Z,32.00
2019-05-18T02:53:17.205Z,30.60
2019-05-18T02:55:47.857Z,33.43
2019-05-18T02:58:18.308Z,32.80
2019-05-18T03:00:49.648Z,32.50
2019-05-18T03:03:20.023Z,33.20
2019-05-18T03:05:50.352Z,34.50
2019-05-18T03:08:23.959Z,34.43
2019-05-18T03:10:54.331Z,33.77
2019-05-18T03:13:24.933Z,36.20
2019-05-18T03:15:55.244Z,33.80
2019-05-18T03:18:25.885Z,34.90
2019-05-18T03:20:56.593Z,34.40
2019-05-18T03:23:26.951Z,32.63
2019-05-18T03:25:57.625Z,32.73
2019-05-18T03:28:28.010Z,33.93
2019-05-18T03:30:58.355Z,34.07
2019-05-18T03:33:30.226Z,32.27
2019-05-18T03:36:00.661Z,33.13
2019-05-18T03:38:31.541Z,34.17
2019-05-18T03:41:01.859Z,33.00
2019-05-18T03:43:32.286Z,33.87
2019-05-18T03:46:03.009Z,32.87
2019-05-18T03:48:33.738Z,33.40
2019-05-18T03:51:04.032Z,34.10
2019-05-18T03:53:34.591Z,36.20
2019-05-18T03:56:04.934Z,35.73
2019-05-18T03:58:36.244Z,36.50
2019-05-18T04:01:06.678Z,34.70
2019-05-18T04:03:37.022Z,33.80
2019-05-18T04:06:07.338Z,33.20
2019-05-18T04:08:37.668Z,34.57
2019-05-18T04:11:08.296Z,36.20
2019-05-18T04:13:38.657Z,35.73
2019-05-18T04:16:09.000Z,34.93
2019-05-18T04:18:39.658Z,34.97
2019-05-18T04:21:10.189Z,34.40
2019-05-18T04:23:40.552Z,35.33
2019-05-18T04:26:10.830Z,35.17
2019-05-18T04:28:41.342Z,33.97
2019-05-18T04:31:11.912Z,35.13
2019-05-18T04:33:42.298Z,34.33
2019-05-18T04:36:12.748Z,34.50
2019-05-18T04:38:43.452Z,35.13
2019-05-18T04:41:14.116Z,34.63
2019-05-18T04:43:44.511Z,35.90
2019-05-18T04:46:14.830Z,33.67
2019-05-18T04:48:45.495Z,34.07
2019-05-18T04:51:15.814Z,35.40
2019-05-18T04:53:46.159Z,34.60
2019-05-18T04:56:16.501Z,33.87
2019-05-18T04:58:46.858Z,32.93
2019-05-18T05:01:17.180Z,34.23
2019-05-18T05:03:47.892Z,35.03
2019-05-18T05:06:18.245Z,35.80
2019-05-18T05:08:48.877Z,35.90
2019-05-18T05:11:19.239Z,34.83
2019-05-18T05:13:51.059Z,34.87
2019-05-18T05:16:23.059Z,36.33
2019-05-18T05:18:54.856Z,36.47
2019-05-18T05:21:25.140Z,36.57
2019-05-18T05:23:56.063Z,37.33
2019-05-18T05:26:26.385Z,36.47
2019-05-18T05:28:58.363Z,37.30
2019-05-18T05:31:28.739Z,36.13
2019-05-18T05:34:00.102Z,37.33
2019-05-18T05:36:30.408Z,37.43
2019-05-18T05:39:01.098Z,36.27
2019-05-18T05:41:31.652Z,38.03
2019-05-18T05:44:02.295Z,37.33
2019-05-18T05:46:33.389Z,37.37
2019-05-18T05:49:05.650Z,36.50
2019-05-18T05:51:35.975Z,37.90
2019-05-18T05:54:06.323Z,38.23
2019-05-18T05:56:36.658Z,36.73
2019-05-18T05:59:06.967Z,35.77
2019-05-18T06:01:37.739Z,36.37
2019-05-18T06:04:08.076Z,36.07
2019-05-18T06:06:38.432Z,37.67
2019-05-18T06:09:09.214Z,35.43
2019-05-18T06:11:39.536Z,36.67
2019-05-18T06:14:09.994Z,34.67
2019-05-18T06:16:40.328Z,38.07
2019-05-18T06:19:11.063Z,36.03
2019-05-18T06:21:41.404Z,35.00
2019-05-18T06:24:11.774Z,35.73
2019-05-18T06:26:42.808Z,35.47
2019-05-18T06:29:13.617Z,35.20
2019-05-18T06:31:43.997Z,34.73
2019-05-18T06:34:14.689Z,36.53
2019-05-18T06:36:45.399Z,35.33
2019-05-18T06:39:15.757Z,35.73
2019-05-18T06:41:46.476Z,33.73
2019-05-18T06:44:16.848Z,37.40
2019-05-18T06:46:47.471Z,36.70
2019-05-18T06:49:18.419Z,35.60
2019-05-18T06:51:48.744Z,34.57
2019-05-18T06:54:19.148Z,34.43
2019-05-18T06:56:50.498Z,37.83
2019-05-18T06:59:21.971Z,36.20
2019-05-18T07:01:52.379Z,37.87
2019-05-18T07:04:23.148Z,37.37
2019-05-18T07:06:53.499Z,37.27
2019-05-18T07:09:23.858Z,37.90
2019-05-18T07:11:56.119Z,36.77
2019-05-18T07:14:26.303Z,38.83
2019-05-18T07:16:56.684Z,38.63
2019-05-18T07:19:27.027Z,38.63
2019-05-18T07:21:57.320Z,39.60
2019-05-18T07:24:27.712Z,40.33
2019-05-18T07:26:58.077Z,38.53
2019-05-18T07:29:28.500Z,37.57
2019-05-18T07:32:00.250Z,36.90
2019-05-18T07:34:30.608Z,37.87
2019-05-18T07:37:01.275Z,40.23
2019-05-18T07:39:31.563Z,38.37
2019-05-18T07:42:01.886Z,40.57
2019-05-18T07:44:32.512Z,39.50
2019-05-18T07:47:03.209Z,37.53
2019-05-18T07:49:33.621Z,39.33
2019-05-18T07:52:03.924Z,40.13
2019-05-18T07:54:34.314Z,39.03
2019-05-18T07:57:04.631Z,39.07
2019-05-18T07:59:35.408Z,39.17
2019-05-18T08:02:06.177Z,41.43
2019-05-18T08:04:39.711Z,39.27
2019-05-18T08:07:08.496Z,37.50
2019-05-18T08:09:38.902Z,38.80
2019-05-18T08:12:09.645Z,40.37
2019-05-18T08:14:40.218Z,37.13
2019-05-18T08:17:10.542Z,39.60
2019-05-18T08:19:41.761Z,38.13
2019-05-18T08:22:12.068Z,40.70
2019-05-18T08:24:42.991Z,41.27
2019-05-18T08:27:13.268Z,39.93
2019-05-18T08:29:44.402Z,38.60
2019-05-18T08:32:14.758Z,40.67
2019-05-18T08:34:45.085Z,39.73
2019-05-18T08:37:15.360Z,39.57
2019-05-18T08:39:45.766Z,38.03
2019-05-18T08:42:16.400Z,39.13
2019-05-18T08:44:47.122Z,39.20
2019-05-18T08:47:17.465Z,38.43
2019-05-18T08:49:48.558Z,36.38
2019-05-18T08:52:20.012Z,38.90
2019-05-18T08:54:50.477Z,35.95
2019-05-18T08:57:22.985Z,38.13
2019-05-18T08:59:53.829Z,38.07
2019-05-18T09:02:24.153Z,38.23
2019-05-18T09:04:54.826Z,36.65
2019-05-18T09:07:25.132Z,38.53
2019-05-18T09:09:55.784Z,37.93
2019-05-18T09:12:26.162Z,38.05
2019-05-18T09:14:56.611Z,38.42
2019-05-18T09:17:26.885Z,36.50
2019-05-18T09:19:57.346Z,36.28
2019-05-18T09:22:27.874Z,35.37
2019-05-18T09:24:58.257Z,38.47
2019-05-18T09:27:28.589Z,35.13
2019-05-18T09:29:58.945Z,36.27
2019-05-18T09:32:29.277Z,35.38
2019-05-18T09:34:59.659Z,34.43
2019-05-18T09:37:29.992Z,35.90
2019-05-18T09:40:00.419Z,34.85
2019-05-18T09:42:30.918Z,34.78
2019-05-18T09:45:01.576Z,35.00
2019-05-18T09:47:31.940Z,37.08
2019-05-18T09:50:02.805Z,35.23
2019-05-18T09:52:44.628Z,35.95
2019-05-18T09:55:06.387Z,34.33
2019-05-18T09:57:37.045Z,33.98
2019-05-18T10:00:09.386Z,34.35
2019-05-18T10:02:39.772Z,35.78
2019-05-18T10:05:10.476Z,33.98
2019-05-18T10:07:40.846Z,34.58
2019-05-18T10:10:11.852Z,34.10
2019-05-18T10:12:42.217Z,34.85
2019-05-18T10:15:12.822Z,34.03
2019-05-18T10:17:43.666Z,32.00
2019-05-18T10:20:15.057Z,33.42
2019-05-18T10:22:58.931Z,33.67
2019-05-18T10:25:17.841Z,31.65
2019-05-18T10:27:48.152Z,32.00
2019-05-18T10:30:18.625Z,32.83
2019-05-18T10:32:48.965Z,32.90
2019-05-18T10:35:19.403Z,34.08
2019-05-18T10:37:50.032Z,33.67
2019-05-18T10:40:21.085Z,33.42
2019-05-18T10:42:51.357Z,33.70
2019-05-18T10:45:21.769Z,32.80
2019-05-18T10:47:52.102Z,31.33
2019-05-18T10:50:22.500Z,34.48
2019-05-18T10:52:54.234Z,33.00
2019-05-18T10:55:24.619Z,33.15
2019-05-18T10:57:55.288Z,34.75
2019-05-18T11:00:26.406Z,31.02
2019-05-18T11:02:56.759Z,30.60
2019-05-18T11:05:27.475Z,32.65
2019-05-18T11:07:58.229Z,30.48
2019-05-18T11:10:28.659Z,32.17
2019-05-18T11:12:58.999Z,29.98
2019-05-18T11:15:29.395Z,33.67
2019-05-18T11:17:59.683Z,33.10
2019-05-18T11:20:30.084Z,32.83
2019-05-18T11:23:00.454Z,29.72
2019-05-18T11:25:30.845Z,28.23
2019-05-18T11:28:01.197Z,26.77
2019-05-18T11:30:31.615Z,24.67
2019-05-18T11:33:01.937Z,26.50
2019-05-18T11:35:32.357Z,25.32
2019-05-18T11:38:08.516Z,26.80
2019-05-18T11:40:40.021Z,24.32
2019-05-18T11:43:10.288Z,22.75
2019-05-18T11:45:40.539Z,24.98
2019-05-18T11:48:10.826Z,27.37
2019-05-18T11:50:41.461Z,24.30
2019-05-18T11:53:11.962Z,21.42
2019-05-18T11:55:42.193Z,22.65
2019-05-18T11:58:12.763Z,22.05
2019-05-18T12:00:43.050Z,18.55
2019-05-18T12:03:13.614Z,18.25
2019-05-18T12:05:45.549Z,16.25
2019-05-18T12:08:15.842Z,17.40
2019-05-18T12:10:46.063Z,18.17
2019-05-18T12:13:16.336Z,17.23
2019-05-18T12:15:46.728Z,17.65
2019-05-18T12:18:17.630Z,16.17
2019-05-18T12:20:47.918Z,16.25
2019-05-18T12:23:18.434Z,14.58
2019-05-18T12:25:50.758Z,12.07
2019-05-18T12:28:20.645Z,10.88
2019-05-18T12:30:50.946Z,11.83
2019-05-18T12:33:21.125Z,12.20
2019-05-18T12:35:51.753Z,12.63
2019-05-18T12:38:21.975Z,10.72
2019-05-18T12:40:52.705Z,11.93
2019-05-18T12:43:23.595Z,13.60
2019-05-18T12:45:53.926Z,12.40
2019-05-18T12:48:24.157Z,13.40
2019-05-18T12:50:54.400Z,14.47
2019-05-18T12:53:25.191Z,11.53
2019-05-18T12:55:55.969Z,11.30
2019-05-18T12:58:26.149Z,15.23
2019-05-18T13:00:56.535Z,16.37
2019-05-18T13:03:26.771Z,14.03
2019-05-18T13:05:57.369Z,14.47
2019-05-18T13:08:28.737Z,13.58
2019-05-18T13:10:58.988Z,12.00
2019-05-18T13:13:29.312Z,9.95
2019-05-18T13:15:59.643Z,10.25
2019-05-18T13:18:30.011Z,9.73
2019-05-18T13:21:00.545Z,7.33
2019-05-18T13:23:31.338Z,8.73
2019-05-18T13:26:01.487Z,11.45
2019-05-18T13:28:31.623Z,10.20
2019-05-18T13:31:01.950Z,8.73
2019-05-18T13:33:32.243Z,9.35
2019-05-18T13:36:03.796Z,9.15
2019-05-18T13:38:34.263Z,6.60
2019-05-18T13:41:04.615Z,6.35
2019-05-18T13:43:34.849Z,5.45
2019-05-18T13:46:05.045Z,5.45
2019-05-18T13:48:35.660Z,5.10
2019-05-18T13:51:06.333Z,5.17
2019-05-18T13:53:36.930Z,5.12
2019-05-18T13:56:07.300Z,5.65
2019-05-18T13:58:37.927Z,5.55
2019-05-18T14:01:08.616Z,5.12
2019-05-18T14:03:39.504Z,4.37
2019-05-18T14:06:10.096Z,4.47
2019-05-18T14:08:40.364Z,4.00
2019-05-18T14:11:11.131Z,3.67
2019-05-18T14:13:41.671Z,4.70
2019-05-18T14:16:11.988Z,4.00
2019-05-18T14:18:42.280Z,5.70
2019-05-18T14:21:12.645Z,5.85
2019-05-18T14:23:44.470Z,4.22
2019-05-18T14:26:16.451Z,3.33
2019-05-18T14:28:46.712Z,3.05
2019-05-18T14:31:17.335Z,3.65
2019-05-18T14:33:47.553Z,4.90
2019-05-18T14:36:17.882Z,4.75
2019-05-18T14:38:48.611Z,5.78
2019-05-18T14:41:18.936Z,5.45
2019-05-18T14:43:49.207Z,6.87
2019-05-18T14:46:19.565Z,5.62
2019-05-18T14:48:50.179Z,6.12
2019-05-18T14:51:20.492Z,5.03
2019-05-18T14:53:52.010Z,5.30
2019-05-18T14:56:22.296Z,5.20
2019-05-18T14:58:52.599Z,5.10
2019-05-18T15:01:23.205Z,4.85
2019-05-18T15:03:53.395Z,4.90
2019-05-18T15:06:24.947Z,5.58
2019-05-18T15:08:55.549Z,5.05
2019-05-18T15:11:25.767Z,5.05
2019-05-18T15:13:56.083Z,4.12
2019-05-18T15:16:26.494Z,5.00
2019-05-18T15:18:56.740Z,4.50
2019-05-18T15:21:27.054Z,4.50
2019-05-18T15:23:58.267Z,4.20
2019-05-18T15:26:29.044Z,3.67
2019-05-18T15:28:59.358Z,4.58
2019-05-18T15:31:29.654Z,3.85
2019-05-18T15:34:01.032Z,3.80
2019-05-18T15:36:31.378Z,3.75
2019-05-18T15:39:01.663Z,3.87
2019-05-18T15:41:32.525Z,3.87
2019-05-18T15:44:03.160Z,3.37
2019-05-18T15:46:33.726Z,3.58
2019-05-18T15:49:04.252Z,3.25
2019-05-18T15:51:34.555Z,3.67
2019-05-18T15:54:04.826Z,3.10
2019-05-18T15:56:35.500Z,3.25
2019-05-18T15:59:05.763Z,3.85
2019-05-18T16:01:36.017Z,3.90
2019-05-18T16:04:06.805Z,3.60
2019-05-18T16:06:37.475Z,3.65
2019-05-18T16:09:07.947Z,3.30
2019-05-18T16:11:38.563Z,3.62
2019-05-18T16:14:08.837Z,3.27
2019-05-18T16:16:39.546Z,7.83
2019-05-18T16:19:09.866Z,9.83
2019-05-18T16:21:40.825Z,9.28
2019-05-18T16:24:11.952Z,10.25
2019-05-18T16:26:42.266Z,9.65
2019-05-18T16:29:12.518Z,9.88
2019-05-18T16:31:42.847Z,8.70
2019-05-18T16:34:13.119Z,8.63
2019-05-18T16:36:43.388Z,10.40
2019-05-18T16:39:13.886Z,9.75
2019-05-18T16:41:44.117Z,9.95
2019-05-18T16:44:14.471Z,9.73
2019-05-18T16:46:44.704Z,9.98
2019-05-18T16:49:14.973Z,11.08
2019-05-18T16:51:48.737Z,11.38
2019-05-18T16:54:18.957Z,9.70
2019-05-18T16:56:49.424Z,9.40
2019-05-18T16:59:19.742Z,7.85
2019-05-18T17:01:49.982Z,7.28
2019-05-18T17:04:20.259Z,6.40
2019-05-18T17:06:50.787Z,6.58
2019-05-18T17:09:21.085Z,6.03
2019-05-18T17:11:51.508Z,6.80
2019-05-18T17:14:21.844Z,7.00
2019-05-18T17:16:52.150Z,7.53
2019-05-18T17:19:22.789Z,7.42
2019-05-18T17:21:53.196Z,7.40
2019-05-18T17:24:23.843Z,8.68
2019-05-18T17:26:54.460Z,8.08
2019-05-18T17:29:25.102Z,8.98
2019-05-18T17:31:55.709Z,8.80
2019-05-18T17:34:27.796Z,9.13
2019-05-18T17:36:58.091Z,9.05
2019-05-18T17:39:28.386Z,9.38
2019-05-18T17:41:59.557Z,9.40
2019-05-18T17:44:31.412Z,9.58
2019-05-18T17:47:01.693Z,8.95
2019-05-18T17:49:32.370Z,9.48
2019-05-18T17:52:03.031Z,9.68
2019-05-18T17:54:33.284Z,9.45
2019-05-18T17:57:08.412Z,10.48
2019-05-18T17:59:35.499Z,9.75
2019-05-18T18:02:06.279Z,9.20
2019-05-18T18:04:36.605Z,9.60
2019-05-18T18:07:07.225Z,9.63
2019-05-18T18:09:37.802Z,9.80
2019-05-18T18:12:08.191Z,10.35
2019-05-18T18:14:38.897Z,10.63
2019-05-18T18:17:09.219Z,10.13
2019-05-18T18:19:39.721Z,9.85
2019-05-18T18:22:10.298Z,9.30
2019-05-18T18:24:40.604Z,9.93
2019-05-18T18:27:24.014Z,10.32
2019-05-18T18:29:43.909Z,9.78
2019-05-18T18:32:14.863Z,10.18
2019-05-18T18:34:45.493Z,10.40
2019-05-18T18:37:15.789Z,11.33
2019-05-18T18:39:46.375Z,12.20
2019-05-18T18:42:17.063Z,11.15
2019-05-18T18:44:47.324Z,11.35
2019-05-18T18:47:17.613Z,11.55
2019-05-18T18:49:51.465Z,11.08
2019-05-18T18:52:22.741Z,11.53
2019-05-18T18:54:53.031Z,10.82
2019-05-18T18:57:23.425Z,10.53
2019-05-18T18:59:56.860Z,11.38
2019-05-18T19:02:26.188Z,10.63
2019-05-18T19:04:56.422Z,10.60
2019-05-18T19:07:26.743Z,10.72
2019-05-18T19:09:57.064Z,11.75
2019-05-18T19:12:28.039Z,11.12
2019-05-18T19:14:58.676Z,11.05
2019-05-18T19:17:29.310Z,10.53
2019-05-18T19:20:01.138Z,10.23
2019-05-18T19:22:31.516Z,11.88
2019-05-18T19:25:01.767Z,10.88
2019-05-18T19:27:32.716Z,12.23
2019-05-18T19:30:03.087Z,12.25
2019-05-18T19:32:33.481Z,17.92
2019-05-18T19:35:04.437Z,19.37
2019-05-18T19:37:35.923Z,15.20
2019-05-18T19:40:07.286Z,14.45
2019-05-18T19:42:37.922Z,12.82
2019-05-18T19:45:09.125Z,12.50
2019-05-18T19:47:39.622Z,12.18
2019-05-18T19:50:10.709Z,11.75
2019-05-18T19:52:41.501Z,12.60
2019-05-18T19:55:13.592Z,13.43
2019-05-18T19:57:44.236Z,12.55
2019-05-18T20:00:16.132Z,12.58
2019-05-18T20:02:46.775Z,11.83
2019-05-18T20:05:17.078Z,13.48
2019-05-18T20:07:47.746Z,13.05
2019-05-18T20:10:18.361Z,12.73
2019-05-18T20:12:48.591Z,12.55
2019-05-18T20:15:19.079Z,12.90
2019-05-18T20:17:50.127Z,12.55
2019-05-18T20:20:21.479Z,11.50
2019-05-18T20:22:52.417Z,12.75
2019-05-18T20:25:22.722Z,12.37
2019-05-18T20:27:53.409Z,12.85
2019-05-18T20:30:23.848Z,12.37
2019-05-18T20:32:54.503Z,12.45
2019-05-18T20:35:25.855Z,11.73
2019-05-18T20:37:56.355Z,12.15
2019-05-18T20:40:26.605Z,12.43
2019-05-18T20:42:57.100Z,13.68
2019-05-18T20:45:27.713Z,13.90
2019-05-18T20:47:57.952Z,13.45
2019-05-18T20:50:28.430Z,12.00
2019-05-18T20:52:58.851Z,10.15
2019-05-18T20:55:29.199Z,10.20
2019-05-18T20:57:59.513Z,9.88
2019-05-18T21:00:30.116Z,10.00
2019-05-18T21:03:00.467Z,9.70
2019-05-18T21:05:30.744Z,11.35
2019-05-18T21:08:01.119Z,11.27
2019-05-18T21:10:31.893Z,12.13
2019-05-18T21:13:02.721Z,13.18
2019-05-18T21:15:33.403Z,12.33
2019-05-18T21:18:03.780Z,11.90
2019-05-18T21:20:33.954Z,12.43
2019-05-18T21:23:05.265Z,11.53
2019-05-18T21:25:35.590Z,11.85
2019-05-18T21:28:05.960Z,11.93
2019-05-18T21:30:36.326Z,11.50
2019-05-18T21:33:07.001Z,12.05
2019-05-18T21:35:37.253Z,12.25
2019-05-18T21:38:07.582Z,11.83
2019-05-18T21:40:37.832Z,13.18
2019-05-18T21:43:08.599Z,13.60
2019-05-18T21:45:39.434Z,13.53
2019-05-18T21:48:09.848Z,12.88
2019-05-18T21:50:40.087Z,13.05
2019-05-18T21:53:10.481Z,13.70
2019-05-18T21:55:40.712Z,15.13
2019-05-18T21:58:12.383Z,15.23
2019-05-18T22:00:45.674Z,15.93
2019-05-18T22:03:16.144Z,14.38
2019-05-18T22:05:46.434Z,14.60
2019-05-18T22:08:16.763Z,14.25
2019-05-18T22:10:47.001Z,16.23
2019-05-18T22:13:17.312Z,15.78
2019-05-18T22:15:47.652Z,15.23
2019-05-18T22:18:24.492Z,15.05
2019-05-18T22:20:50.276Z,14.40
2019-05-18T22:23:21.258Z,14.70
2019-05-18T22:25:51.574Z,15.05
2019-05-18T22:28:22.107Z,15.78
2019-05-18T22:30:52.356Z,15.15
2019-05-18T22:33:23.026Z,15.50
2019-05-18T22:35:53.231Z,16.40
2019-05-18T22:38:23.557Z,16.70
2019-05-18T22:40:53.833Z,20.68
2019-05-18T22:43:24.117Z,23.38
2019-05-18T22:45:54.317Z,24.40
2019-05-18T22:48:40.004Z,25.08
2019-05-18T22:50:56.843Z,26.90
2019-05-18T22:53:27.824Z,29.77
2019-05-18T22:55:58.101Z,29.27
2019-05-18T22:58:28.972Z,30.45
2019-05-18T23:00:59.939Z,32.08
2019-05-18T23:03:30.863Z,33.80
2019-05-18T23:06:01.255Z,33.33
2019-05-18T23:08:31.492Z,35.70
2019-05-18T23:11:01.692Z,38.50
2019-05-18T23:13:32.618Z,40.75
2019-05-18T23:16:02.873Z,44.23
2019-05-18T23:18:39.988Z,43.15
2019-05-18T23:21:11.421Z,42.10
2019-05-18T23:23:41.721Z,44.60
2019-05-18T23:26:12.341Z,43.20
2019-05-18T23:28:42.791Z,44.18
2019-05-18T23:31:13.071Z,46.02
2019-05-18T23:33:43.368Z,45.23
2019-05-18T23:36:13.910Z,42.85
2019-05-18T23:38:44.193Z,45.25
2019-05-18T23:41:14.434Z,46.88
2019-05-18T23:43:44.664Z,46.40
2019-05-18T23:46:14.927Z,46.58
2019-05-18T23:48:45.534Z,47.48
2019-05-18T23:51:15.782Z,45.75
2019-05-18T23:53:46.344Z,44.95
2019-05-18T23:56:16.620Z,46.73
2019-05-18T23:58:47.535Z,45.63
